Time;durP1;ratioP1;P1;durP2;ratioP2;P2;SDS_P1;SDS_P2;PMS_P1;PMS_P2;Temp;Humidity;BMP_temperature;BMP_pressure;BME280_temperature;BME280_humidity;BME280_pressure;Samples;Min_cycle;Max_cycle;Signal;HPM_P1;HPM_P2
2023/04/01 00:01:40;;;;;;;8.73;6.28;;;10.60;99.90;;;;;;5094570;28;20046;-68
2023/04/01 00:04:05;;;;;;;7.72;6.53;;;10.60;99.90;;;;;;5094252;28;20036;-68
2023/04/01 00:06:31;;;;;;;10.75;7.07;;;10.60;99.90;;;;;;5094192;28;20407;-69
2023/04/01 00:08:56;;;;;;;11.13;6.28;;;10.50;99.90;;;;;;5094237;28;20530;-68
2023/04/01 00:11:23;;;;;;;9.43;6.85;;;10.60;99.90;;;;;;5094470;28;20558;-68
2023/04/01 00:13:49;;;;;;;10.45;7.05;;;10.60;99.90;;;;;;5094172;28;20099;-68
2023/04/01 00:16:15;;;;;;;8.50;7.00;;;10.60;99.90;;;;;;5094102;28;20080;-68
2023/04/01 00:18:40;;;;;;;11.18;7.53;;;10.60;99.90;;;;;;5094140;28;20036;-68
2023/04/01 00:21:06;;;;;;;10.32;8.10;;;10.50;99.90;;;;;;5093946;28;20040;-68
2023/04/01 00:23:32;;;;;;;11.60;8.38;;;10.50;99.90;;;;;;5093824;28;20024;-68
2023/04/01 00:26:00;;;;;;;9.75;7.45;;;10.60;99.90;;;;;;5093877;28;20032;-68
2023/04/01 00:28:26;;;;;;;11.20;8.38;;;10.50;99.90;;;;;;5093618;28;20028;-68
2023/04/01 00:30:52;;;;;;;11.60;8.45;;;10.50;99.90;;;;;;5093970;28;20062;-68
2023/04/01 00:33:18;;;;;;;10.52;8.50;;;10.50;99.90;;;;;;5093658;28;20047;-69
2023/04/01 00:35:44;;;;;;;12.80;9.15;;;10.50;99.90;;;;;;5093481;28;20044;-68
2023/04/01 00:38:11;;;;;;;11.02;7.97;;;10.50;99.90;;;;;;5093652;28;20514;-69
2023/04/01 00:40:43;;;;;;;10.88;8.65;;;10.50;99.90;;;;;;5093768;28;20076;-68
2023/04/01 00:43:17;;;;;;;14.70;9.20;;;10.50;99.90;;;;;;5093729;28;20106;-68
2023/04/01 00:45:44;;;;;;;12.73;8.88;;;10.50;99.90;;;;;;5093453;28;20266;-69
2023/04/01 00:48:18;;;;;;;13.38;9.30;;;10.50;99.90;;;;;;5092288;28;20040;-68
2023/04/01 00:50:49;;;;;;;12.57;9.40;;;10.50;99.90;;;;;;5093782;28;20044;-68
2023/04/01 00:53:17;;;;;;;16.58;9.80;;;10.50;99.90;;;;;;5093535;28;20116;-68
2023/04/01 00:55:50;;;;;;;12.10;8.65;;;10.50;99.90;;;;;;5093132;28;20534;-69
2023/04/01 00:58:20;;;;;;;11.10;8.32;;;10.50;99.90;;;;;;5093429;28;20039;-70
2023/04/01 01:00:47;;;;;;;14.15;9.95;;;10.50;99.90;;;;;;5093233;28;20403;-68
2023/04/01 01:03:13;;;;;;;13.43;8.43;;;10.50;99.90;;;;;;5093366;28;20051;-68
2023/04/01 01:05:45;;;;;;;12.35;9.23;;;10.50;99.90;;;;;;5093103;28;20044;-69
2023/04/01 01:08:38;;;;;;;12.80;8.90;;;10.50;99.90;;;;;;5093272;28;20036;-68
2023/04/01 01:11:08;;;;;;;12.07;8.80;;;10.50;99.90;;;;;;5091865;28;20636;-69
2023/04/01 01:13:47;;;;;;;14.38;9.15;;;10.40;99.90;;;;;;5093015;28;20063;-69
2023/04/01 01:16:26;;;;;;;17.05;9.35;;;10.40;99.90;;;;;;5093071;28;20051;-69
2023/04/01 01:19:29;;;;;;;12.90;8.30;;;10.40;99.90;;;;;;5091694;28;20044;-69
2023/04/01 01:22:04;;;;;;;14.38;9.27;;;10.40;99.90;;;;;;5092882;28;20418;-68
2023/04/01 01:24:52;;;;;;;11.75;8.98;;;10.40;99.90;;;;;;5091369;28;20044;-68
2023/04/01 01:27:19;;;;;;;13.50;9.50;;;10.40;99.90;;;;;;5092862;28;20067;-68
2023/04/01 01:29:45;;;;;;;11.30;8.73;;;10.40;99.90;;;;;;5092829;28;20092;-68
2023/04/01 01:32:19;;;;;;;11.18;8.70;;;10.40;99.90;;;;;;5092660;28;20040;-68
2023/04/01 01:35:06;;;;;;;11.00;8.70;;;10.30;99.90;;;;;;5092205;28;20044;-68
2023/04/01 01:37:33;;;;;;;12.48;9.02;;;10.40;99.90;;;;;;5091379;28;20530;-68
2023/04/01 01:40:03;;;;;;;12.45;8.65;;;10.40;99.90;;;;;;5090687;28;20044;-68
2023/04/01 01:42:31;;;;;;;11.65;8.82;;;10.30;99.90;;;;;;5092501;28;20068;-69
2023/04/01 01:44:59;;;;;;;13.57;10.05;;;10.30;99.90;;;;;;5092203;28;20036;-69
2023/04/01 01:47:26;;;;;;;12.80;9.18;;;10.40;99.90;;;;;;5092391;28;20518;-69
2023/04/01 01:49:54;;;;;;;13.13;8.27;;;10.30;99.90;;;;;;5092455;28;20486;-69
2023/04/01 01:52:22;;;;;;;14.23;9.10;;;10.40;99.90;;;;;;5091252;28;20122;-68
2023/04/01 01:54:51;;;;;;;12.85;9.00;;;10.40;99.90;;;;;;5091957;28;20048;-68
2023/04/01 01:57:21;;;;;;;10.52;8.43;;;10.30;99.90;;;;;;5092229;28;20403;-68
2023/04/01 01:59:49;;;;;;;14.10;8.60;;;10.40;99.90;;;;;;5092368;28;20118;-68
2023/04/01 02:02:16;;;;;;;14.30;9.00;;;10.40;99.90;;;;;;5092342;28;20088;-69
2023/04/01 02:04:44;;;;;;;15.80;9.68;;;10.30;99.90;;;;;;5090793;28;20036;-69
2023/04/01 02:07:21;;;;;;;16.63;9.38;;;10.30;99.90;;;;;;5092110;28;20380;-69
2023/04/01 02:09:48;;;;;;;15.23;9.75;;;10.40;99.90;;;;;;5092090;28;20044;-68
2023/04/01 02:12:16;;;;;;;13.23;10.02;;;10.30;99.90;;;;;;5092216;28;20044;-68
2023/04/01 02:14:54;;;;;;;17.98;10.40;;;10.40;99.90;;;;;;5091247;28;20067;-69
2023/04/01 02:17:23;;;;;;;14.68;9.88;;;10.30;99.90;;;;;;5081200;28;20403;-68
2023/04/01 02:19:58;;;;;;;14.80;9.23;;;10.30;99.90;;;;;;5086633;28;20408;-68
2023/04/01 02:22:27;;;;;;;14.63;9.98;;;10.30;99.90;;;;;;5090185;28;20040;-68
2023/04/01 02:25:07;;;;;;;15.63;9.93;;;10.30;99.90;;;;;;5085802;28;20135;-68
2023/04/01 02:27:34;;;;;;;15.32;10.80;;;10.30;99.90;;;;;;5090057;28;20036;-68
2023/04/01 02:29:59;;;;;;;16.33;10.57;;;10.30;99.90;;;;;;5090809;28;20047;-68
2023/04/01 02:32:27;;;;;;;16.13;10.68;;;10.30;99.90;;;;;;5091696;28;20640;-68
2023/04/01 02:34:53;;;;;;;16.17;10.63;;;10.30;99.90;;;;;;5091342;28;20040;-68
2023/04/01 02:37:19;;;;;;;15.95;10.93;;;10.30;99.90;;;;;;5090808;28;20032;-68
2023/04/01 02:39:44;;;;;;;15.00;10.70;;;10.30;99.90;;;;;;5084295;28;20040;-68
2023/04/01 02:42:10;;;;;;;14.68;10.60;;;10.30;99.90;;;;;;5091832;28;20108;-68
2023/04/01 02:44:36;;;;;;;15.48;11.20;;;10.30;99.90;;;;;;5091304;28;20036;-68
2023/04/01 02:47:02;;;;;;;15.80;10.60;;;10.20;99.90;;;;;;5091546;28;20050;-68
2023/04/01 02:49:27;;;;;;;14.55;10.18;;;10.30;99.90;;;;;;5090461;28;20534;-71
2023/04/01 02:51:53;;;;;;;17.02;10.57;;;10.30;99.90;;;;;;5084629;28;20119;-70
2023/04/01 02:54:19;;;;;;;14.43;10.73;;;10.20;99.90;;;;;;5094150;28;20047;-70
2023/04/01 02:56:45;;;;;;;16.88;10.90;;;10.20;99.90;;;;;;5087157;28;20054;-70
2023/04/01 02:59:11;;;;;;;18.30;10.70;;;10.20;99.90;;;;;;5095615;28;20127;-70
2023/04/01 03:01:37;;;;;;;16.90;11.75;;;10.30;99.90;;;;;;5095519;28;20032;-70
2023/04/01 03:04:03;;;;;;;17.27;12.35;;;10.30;99.90;;;;;;5095608;28;20181;-70
2023/04/01 03:06:29;;;;;;;17.90;12.23;;;10.30;99.90;;;;;;5077159;28;20044;-70
2023/04/01 03:08:54;;;;;;;17.27;11.60;;;10.30;99.90;;;;;;5095439;28;20032;-70
2023/04/01 03:11:21;;;;;;;15.82;10.40;;;10.30;99.90;;;;;;5095530;28;20039;-70
2023/04/01 03:13:46;;;;;;;18.88;11.15;;;10.30;99.90;;;;;;5095250;28;20040;-70
2023/04/01 03:16:12;;;;;;;17.13;11.25;;;10.20;99.90;;;;;;5093776;28;20050;-70
2023/04/01 03:18:37;;;;;;;15.82;11.00;;;10.20;99.90;;;;;;5095513;28;20032;-70
2023/04/01 03:21:18;;;;;;;18.52;12.07;;;10.20;99.90;;;;;;5095345;28;20403;-70
2023/04/01 03:23:44;;;;;;;14.43;10.60;;;10.20;99.90;;;;;;5094997;28;20429;-70
2023/04/01 03:26:10;;;;;;;18.08;11.73;;;10.20;99.90;;;;;;5094990;28;20032;-70
2023/04/01 03:28:35;;;;;;;16.38;10.70;;;10.20;99.90;;;;;;5095129;28;20107;-70
2023/04/01 03:31:01;;;;;;;15.57;10.32;;;10.20;99.90;;;;;;5094923;28;20410;-70
2023/04/01 03:33:26;;;;;;;17.52;11.05;;;10.20;99.90;;;;;;5094749;28;20062;-70
2023/04/01 03:35:52;;;;;;;18.30;11.70;;;10.20;99.90;;;;;;5093684;28;20079;-70
2023/04/01 03:38:18;;;;;;;14.93;10.25;;;10.30;99.90;;;;;;5094985;28;20122;-70
2023/04/01 03:40:44;;;;;;;18.98;10.63;;;10.20;99.90;;;;;;5094847;28;20079;-70
2023/04/01 03:43:10;;;;;;;15.73;10.50;;;10.20;99.90;;;;;;5094772;28;20086;-70
2023/04/01 03:45:43;;;;;;;16.52;10.90;;;10.30;99.90;;;;;;5094716;28;20491;-70
2023/04/01 03:48:08;;;;;;;16.05;11.02;;;10.30;99.90;;;;;;5093695;28;20037;-70
2023/04/01 03:50:34;;;;;;;15.52;10.85;;;10.30;99.90;;;;;;5094818;28;20040;-70
2023/04/01 03:53:00;;;;;;;16.20;11.60;;;10.30;99.90;;;;;;5076347;28;20043;-70
2023/04/01 03:55:25;;;;;;;18.65;11.48;;;10.20;99.90;;;;;;5093330;28;20050;-70
2023/04/01 03:57:51;;;;;;;16.00;11.30;;;10.20;99.90;;;;;;5094461;28;20050;-70
2023/04/01 04:00:17;;;;;;;16.02;11.43;;;10.20;99.90;;;;;;5094598;28;20040;-70
2023/04/01 04:02:42;;;;;;;19.33;11.73;;;10.20;99.90;;;;;;5094071;28;20565;-70
2023/04/01 04:05:08;;;;;;;19.98;13.05;;;10.30;99.90;;;;;;5093865;28;20491;-70
2023/04/01 04:07:35;;;;;;;19.73;13.10;;;10.30;99.90;;;;;;5094436;28;20415;-70
2023/04/01 04:10:00;;;;;;;22.08;13.45;;;10.30;99.90;;;;;;5093091;28;20047;-70
2023/04/01 04:12:26;;;;;;;22.70;13.73;;;10.30;99.90;;;;;;5094146;28;20055;-70
2023/04/01 04:14:51;;;;;;;23.17;15.23;;;10.20;99.90;;;;;;5092499;28;20572;-70
2023/04/01 04:17:17;;;;;;;20.13;14.05;;;10.20;99.90;;;;;;5094358;28;20081;-70
2023/04/01 04:19:43;;;;;;;20.52;13.07;;;10.20;99.90;;;;;;5093161;28;20040;-70
2023/04/01 04:22:09;;;;;;;24.30;15.63;;;10.20;99.90;;;;;;5094304;28;20039;-70
2023/04/01 04:24:35;;;;;;;22.65;13.68;;;10.30;99.90;;;;;;5092696;28;20048;-70
2023/04/01 04:27:01;;;;;;;24.75;14.82;;;10.30;99.90;;;;;;5094022;28;20036;-70
2023/04/01 04:29:26;;;;;;;22.85;15.00;;;10.30;99.90;;;;;;5094165;28;20130;-70
2023/04/01 04:31:52;;;;;;;24.80;15.57;;;10.20;99.90;;;;;;5094037;28;20051;-70
2023/04/01 04:34:18;;;;;;;25.67;15.63;;;10.20;99.90;;;;;;5104901;22;20094;-67
2023/04/01 04:36:44;;;;;;;21.58;15.45;;;10.20;99.90;;;;;;5091602;28;20094;-67
2023/04/01 04:39:09;;;;;;;24.95;15.63;;;10.20;99.90;;;;;;5093586;28;20141;-67
2023/04/01 04:41:37;;;;;;;21.23;12.98;;;10.20;99.90;;;;;;5093526;28;20131;-68
2023/04/01 04:44:03;;;;;;;21.83;12.57;;;10.20;99.90;;;;;;5086201;28;20039;-68
2023/04/01 04:46:28;;;;;;;22.65;12.52;;;10.20;99.90;;;;;;5073652;28;20028;-68
2023/04/01 04:48:54;;;;;;;22.40;12.32;;;10.20;99.90;;;;;;5073525;28;20462;-68
2023/04/01 04:51:20;;;;;;;19.70;12.02;;;10.20;99.90;;;;;;5073417;28;20507;-68
2023/04/01 04:53:46;;;;;;;16.52;10.85;;;10.10;99.90;;;;;;5072942;28;20094;-68
2023/04/01 04:56:12;;;;;;;17.38;11.68;;;10.20;99.90;;;;;;5073045;28;20037;-68
2023/04/01 04:58:38;;;;;;;17.13;11.52;;;10.20;99.90;;;;;;5073531;28;20044;-67
2023/04/01 05:01:15;;;;;;;16.90;10.52;;;10.20;99.90;;;;;;5073146;28;20032;-67
2023/04/01 05:03:42;;;;;;;19.52;11.20;;;10.20;99.90;;;;;;5072896;28;20040;-67
2023/04/01 05:06:09;;;;;;;17.42;10.88;;;10.20;99.90;;;;;;5072942;28;20032;-67
2023/04/01 05:08:36;;;;;;;18.90;11.90;;;10.10;99.90;;;;;;5072920;28;20032;-67
2023/04/01 05:11:02;;;;;;;21.45;11.05;;;10.10;99.90;;;;;;5071907;28;20037;-67
2023/04/01 05:13:28;;;;;;;18.85;10.23;;;10.10;99.90;;;;;;5072851;28;20062;-67
2023/04/01 05:15:54;;;;;;;18.05;9.88;;;10.10;99.90;;;;;;5072670;28;20077;-67
2023/04/01 05:18:20;;;;;;;19.00;12.00;;;10.10;99.90;;;;;;5072738;28;20040;-67
2023/04/01 05:20:49;;;;;;;14.38;9.55;;;10.10;99.90;;;;;;5072712;28;20040;-67
2023/04/01 05:23:14;;;;;;;13.45;8.88;;;10.20;99.90;;;;;;5072425;28;20564;-68
2023/04/01 05:25:40;;;;;;;14.02;9.68;;;10.10;99.90;;;;;;5072511;28;20119;-68
2023/04/01 05:28:05;;;;;;;14.52;9.75;;;10.10;99.90;;;;;;5072419;28;20663;-68
2023/04/01 05:30:31;;;;;;;16.63;10.32;;;10.10;99.90;;;;;;5072760;28;20047;-67
2023/04/01 05:32:56;;;;;;;15.05;9.27;;;10.20;99.90;;;;;;5072499;28;20074;-67
2023/04/01 05:35:23;;;;;;;17.52;9.82;;;10.10;99.90;;;;;;5072104;28;20036;-67
2023/04/01 05:37:49;;;;;;;17.65;9.68;;;10.10;99.90;;;;;;5072349;28;20127;-67
2023/04/01 05:40:14;;;;;;;16.00;10.48;;;10.10;99.90;;;;;;5072247;28;20128;-68
2023/04/01 05:42:40;;;;;;;20.55;11.00;;;10.10;99.90;;;;;;5072384;28;20067;-67
2023/04/01 05:45:06;;;;;;;16.05;10.23;;;10.10;99.90;;;;;;5070685;28;20040;-67
2023/04/01 05:47:31;;;;;;;15.18;10.43;;;10.10;99.90;;;;;;5071247;28;20128;-67
2023/04/01 05:49:57;;;;;;;17.92;11.48;;;10.10;99.90;;;;;;5072230;28;20126;-68
2023/04/01 05:52:23;;;;;;;18.70;11.20;;;10.10;99.90;;;;;;5072060;28;20042;-67
2023/04/01 05:54:49;;;;;;;18.20;10.52;;;10.10;99.90;;;;;;5072077;28;20087;-67
2023/04/01 05:57:15;;;;;;;16.65;10.65;;;10.10;99.90;;;;;;5072341;28;20071;-67
2023/04/01 05:59:40;;;;;;;17.58;11.00;;;10.10;99.90;;;;;;5072196;28;20045;-68
2023/04/01 06:02:06;;;;;;;17.73;10.32;;;10.10;99.90;;;;;;5071968;28;20039;-68
2023/04/01 06:04:39;;;;;;;17.88;11.60;;;10.20;99.90;;;;;;5070670;28;20045;-68
2023/04/01 06:07:11;;;;;;;21.63;12.63;;;10.10;99.90;;;;;;5071911;28;20081;-68
2023/04/01 06:09:37;;;;;;;18.08;11.15;;;10.20;99.90;;;;;;5072240;28;20040;-68
2023/04/01 06:12:30;;;;;;;20.05;12.25;;;10.20;99.90;;;;;;5071851;28;20427;-68
2023/04/01 06:15:10;;;;;;;20.15;12.23;;;10.20;99.90;;;;;;5071401;28;20491;-69
2023/04/01 06:17:54;;;;;;;20.45;12.70;;;10.20;99.90;;;;;;5071797;28;20408;-67
2023/04/01 06:20:52;;;;;;;19.85;12.35;;;10.20;99.90;;;;;;5070428;28;20463;-68
2023/04/01 06:24:04;;;;;;;19.67;11.90;;;10.20;99.90;;;;;;5071883;28;20040;-67
2023/04/01 06:27:07;;;;;;;20.80;12.25;;;10.20;99.90;;;;;;5071425;28;20048;-67
2023/04/01 06:29:46;;;;;;;21.10;14.23;;;10.20;99.90;;;;;;5071725;28;20051;-67
2023/04/01 06:32:30;;;;;;;22.40;13.93;;;10.20;99.90;;;;;;5071678;28;20115;-67
2023/04/01 06:35:10;;;;;;;26.30;14.98;;;10.20;99.90;;;;;;5071234;28;20551;-67
2023/04/01 06:38:06;;;;;;;25.13;15.75;;;10.20;99.90;;;;;;5071554;28;20048;-68
2023/04/01 06:40:50;;;;;;;28.15;17.38;;;10.20;99.90;;;;;;5071370;28;20044;-67
2023/04/01 06:43:15;;;;;;;29.38;16.15;;;10.30;99.90;;;;;;5070204;28;20119;-67
2023/04/01 06:46:06;;;;;;;29.00;17.38;;;10.20;99.90;;;;;;5080901;28;20161;-67
2023/04/01 06:49:03;;;;;;;28.48;17.77;;;10.20;99.90;;;;;;5071465;28;20036;-72
2023/04/01 06:51:51;;;;;;;32.05;18.17;;;10.20;99.90;;;;;;5071576;28;20067;-69
2023/04/01 06:54:21;;;;;;;28.38;16.88;;;10.30;99.90;;;;;;5070156;28;20499;-69
2023/04/01 06:56:52;;;;;;;32.92;18.58;;;10.30;99.90;;;;;;5071337;28;20047;-69
2023/04/01 06:59:22;;;;;;;27.70;17.38;;;10.20;99.90;;;;;;5078190;28;20389;-66
2023/04/01 07:01:53;;;;;;;28.02;17.50;;;10.30;99.90;;;;;;5091940;28;20089;-67
2023/04/01 07:04:34;;;;;;;30.98;18.42;;;10.30;99.90;;;;;;5091495;28;20111;-67
2023/04/01 07:07:04;;;;;;;26.02;15.57;;;10.30;99.90;;;;;;5091552;28;20039;-67
2023/04/01 07:09:38;;;;;;;26.33;16.02;;;10.30;99.90;;;;;;5091507;28;20044;-67
2023/04/01 07:12:18;;;;;;;27.85;16.52;;;10.30;99.90;;;;;;5091679;28;20036;-67
2023/04/01 07:14:45;;;;;;;32.05;16.67;;;10.30;99.90;;;;;;5091064;28;20523;-67
2023/04/01 07:17:28;;;;;;;29.02;16.27;;;10.30;99.90;;;;;;5091508;28;20036;-67
2023/04/01 07:20:03;;;;;;;27.90;15.90;;;10.40;99.90;;;;;;5090106;28;20040;-67
2023/04/01 07:22:48;;;;;;;30.27;17.42;;;10.30;99.90;;;;;;5091635;28;20074;-67
2023/04/01 07:25:19;;;;;;;30.55;18.48;;;10.40;99.90;;;;;;5091096;28;20040;-66
2023/04/01 07:27:46;;;;;;;28.83;17.10;;;10.40;99.90;;;;;;5091358;28;20043;-67
2023/04/01 07:30:21;;;;;;;30.70;17.30;;;10.40;99.90;;;;;;5086921;28;20032;-68
2023/04/01 07:33:14;;;;;;;29.45;17.42;;;10.40;99.90;;;;;;5091076;28;20487;-72
2023/04/01 07:35:50;;;;;;;;;;;10.40;99.90;;;;;;5090157;28;20054;-72
2023/04/01 07:38:36;;;;;;;30.48;18.52;;;10.40;99.90;;;;;;5091813;28;20290;-71
2023/04/01 07:41:02;;;;;;;31.08;18.40;;;10.40;99.90;;;;;;5093472;28;20051;-72
2023/04/01 07:44:07;;;;;;;27.95;16.75;;;10.50;99.90;;;;;;5094987;28;20036;-72
2023/04/01 07:46:35;;;;;;;30.33;17.13;;;10.50;99.90;;;;;;5083531;28;20164;-72
2023/04/01 07:49:08;;;;;;;27.65;16.70;;;10.50;99.90;;;;;;5094679;28;20495;-72
2023/04/01 07:52:03;;;;;;;29.88;18.48;;;10.50;99.90;;;;;;5093543;28;20503;-72
2023/04/01 07:55:04;;;;;;;26.83;16.67;;;10.60;99.90;;;;;;5088792;28;20044;-75
2023/04/01 07:57:46;;;;;;;29.05;16.60;;;10.70;99.90;;;;;;5094132;28;20044;-76
2023/04/01 08:00:48;;;;;;;30.27;17.55;;;10.70;99.90;;;;;;5093318;28;20040;-77
2023/04/01 08:03:35;;;;;;;26.55;14.90;;;10.80;99.90;;;;;;5094451;28;20499;-76
2023/04/01 08:06:36;;;;;;;26.40;14.50;;;10.80;99.90;;;;;;5094174;28;20044;-76
2023/04/01 08:09:40;;;;;;;24.70;14.77;;;10.90;99.90;;;;;;5075814;28;20059;-76
2023/04/01 08:12:31;;;;;;;25.20;14.95;;;10.90;99.90;;;;;;5034200;28;20040;-76
2023/04/01 08:15:05;;;;;;;27.02;15.93;;;11.00;99.90;;;;;;5080456;28;20040;-76
2023/04/01 08:17:33;;;;;;;21.48;13.63;;;10.90;99.90;;;;;;5072466;28;20044;-76
2023/04/01 08:20:37;;;;;;;21.42;13.52;;;11.00;99.90;;;;;;5075284;28;20110;-76
2023/04/01 08:23:11;;;;;;;22.80;14.35;;;11.00;99.90;;;;;;5063598;28;20048;-76
2023/04/01 08:26:08;;;;;;;23.70;14.07;;;11.00;99.90;;;;;;5072577;28;20068;-76
2023/04/01 08:29:00;;;;;;;21.20;13.70;;;11.00;99.90;;;;;;5064235;28;20047;-76
2023/04/01 08:31:46;;;;;;;26.83;13.45;;;11.10;99.90;;;;;;5056106;28;20384;-76
2023/04/01 08:34:18;;;;;;;24.05;13.63;;;11.10;99.90;;;;;;5072114;28;20032;-76
2023/04/01 08:36:50;;;;;;;20.38;12.60;;;11.10;99.90;;;;;;5072395;28;20067;-76
2023/04/01 08:39:22;;;;;;;20.33;11.95;;;11.00;99.90;;;;;;5072643;28;20431;-76
2023/04/01 08:42:04;;;;;;;20.35;12.93;;;11.10;99.90;;;;;;5072570;28;20040;-76
2023/04/01 08:45:05;;;;;;;19.48;11.80;;;11.10;99.90;;;;;;5073431;28;20078;-79
2023/04/01 08:47:41;;;;;;;21.35;12.68;;;11.10;99.90;;;;;;5072855;28;20085;-77
2023/04/01 08:50:22;;;;;;;19.20;11.85;;;11.20;99.90;;;;;;5071942;28;20044;-76
2023/04/01 08:53:45;;;;;;;18.83;11.57;;;11.20;99.90;;;;;;5072352;28;20048;-76
2023/04/01 08:56:18;;;;;;;19.73;12.05;;;11.10;99.90;;;;;;5014367;28;20049;-76
2023/04/01 08:59:06;;;;;;;15.60;10.23;;;11.20;99.90;;;;;;5062681;28;20052;-77
2023/04/01 09:01:51;;;;;;;15.77;9.98;;;11.30;99.90;;;;;;5072765;28;20468;-76
2023/04/01 09:04:25;;;;;;;14.52;9.70;;;11.30;99.90;;;;;;5072566;28;20078;-72
2023/04/01 09:07:28;;;;;;;14.38;9.52;;;11.20;99.90;;;;;;5070915;28;20048;-72
2023/04/01 09:10:23;;;;;;;17.93;10.57;;;11.20;99.90;;;;;;5072486;28;20078;-72
2023/04/01 09:13:16;;;;;;;16.05;10.10;;;11.20;99.90;;;;;;5071523;28;20266;-72
2023/04/01 09:16:02;;;;;;;17.10;10.32;;;11.10;99.90;;;;;;5071277;28;20492;-72
2023/04/01 09:19:09;;;;;;;15.63;10.05;;;11.20;99.90;;;;;;5072308;28;20441;-72
2023/04/01 09:21:48;;;;;;;15.10;9.23;;;11.10;99.90;;;;;;5050666;28;20048;-72
2023/04/01 09:24:41;;;;;;;14.02;9.70;;;11.20;99.90;;;;;;5054503;28;20047;-72
2023/04/01 09:27:30;;;;;;;12.35;8.35;;;11.10;99.90;;;;;;5071147;28;20093;-72
2023/04/01 09:30:31;;;;;;;11.77;7.00;;;10.90;99.90;;;;;;5071252;28;20093;-72
2023/04/01 09:32:59;;;;;;;10.55;4.50;;;10.80;99.90;;;;;;5072407;28;20396;-72
2023/04/01 09:35:47;;;;;;;6.85;4.85;;;10.70;99.90;;;;;;5071883;28;20547;-72
2023/04/01 09:38:26;;;;;;;6.15;4.20;;;10.60;99.90;;;;;;5070962;28;20040;-72
2023/04/01 09:41:02;;;;;;;4.78;3.60;;;10.50;99.90;;;;;;5070991;28;20107;-72
2023/04/01 09:44:09;;;;;;;6.38;3.30;;;10.50;99.90;;;;;;5072190;28;20045;-72
2023/04/01 09:46:44;;;;;;;4.63;3.58;;;10.40;99.90;;;;;;5072060;28;20083;-72
2023/04/01 09:49:26;;;;;;;4.40;3.30;;;10.30;99.90;;;;;;5072226;28;20041;-72
2023/04/01 09:52:06;;;;;;;5.75;3.90;;;10.40;99.90;;;;;;5070993;28;20044;-72
2023/04/01 09:54:49;;;;;;;6.35;3.50;;;10.20;99.90;;;;;;5070767;28;20040;-71
2023/04/01 09:57:15;;;;;;;;;;;10.30;99.90;;;;;;5071164;28;20507;-72
2023/04/01 10:00:26;;;;;;;4.20;2.97;;;10.20;99.90;;;;;;5070715;28;19927;-72
2023/04/01 10:03:35;;;;;;;6.80;3.55;;;10.10;99.90;;;;;;5070378;28;20115;-72
2023/04/01 10:06:17;;;;;;;5.28;3.20;;;10.10;99.90;;;;;;5071689;28;20044;-71
2023/04/01 10:09:10;;;;;;;3.83;2.65;;;10.10;99.90;;;;;;5070798;28;20123;-71
2023/04/01 10:11:54;;;;;;;3.92;3.05;;;10.10;99.90;;;;;;5072046;28;20090;-71
2023/04/01 10:14:30;;;;;;;3.50;2.95;;;10.10;99.90;;;;;;5071752;28;20090;-72
2023/04/01 10:17:31;;;;;;;3.42;2.25;;;10.10;99.90;;;;;;5071648;28;20041;-71
2023/04/01 10:20:40;;;;;;;3.17;2.38;;;10.10;99.90;;;;;;5070411;28;20049;-71
2023/04/01 10:23:16;;;;;;;3.50;2.20;;;10.10;99.90;;;;;;5070498;28;20063;-71
2023/04/01 10:25:57;;;;;;;3.22;2.60;;;10.10;99.90;;;;;;5070158;28;20049;-71
2023/04/01 10:28:53;;;;;;;3.35;1.92;;;10.10;99.90;;;;;;5071821;28;20128;-71
2023/04/01 10:31:45;;;;;;;3.83;1.80;;;10.10;99.90;;;;;;5070339;28;20499;-71
2023/04/01 10:34:39;;;;;;;2.63;2.03;;;10.10;99.90;;;;;;5096678;22;20044;-72
2023/04/01 10:37:38;;;;;;;2.92;1.98;;;10.20;99.90;;;;;;5091892;28;20044;-72
2023/04/01 10:40:31;;;;;;;2.85;2.17;;;10.20;99.90;;;;;;5090510;28;20106;-72
2023/04/01 10:43:25;;;;;;;3.00;2.65;;;10.20;99.90;;;;;;5091733;28;20040;-72
2023/04/01 10:46:29;;;;;;;4.32;2.00;;;10.20;99.90;;;;;;5065516;28;20063;-72
2023/04/01 10:49:38;;;;;;;3.75;1.77;;;10.10;99.90;;;;;;5070303;28;20098;-72
2023/04/01 10:52:09;;;;;;;5.20;2.25;;;10.10;99.90;;;;;;4993000;28;20049;-72
2023/04/01 10:54:51;;;;;;;2.78;2.10;;;10.10;99.90;;;;;;5060598;28;20053;-72
2023/04/01 10:57:42;;;;;;;3.00;2.17;;;10.10;99.90;;;;;;5053681;28;20400;-72
2023/04/01 11:00:32;;;;;;;3.83;2.45;;;10.00;99.90;;;;;;5071452;28;20127;-72
2023/04/01 11:03:12;;;;;;;2.80;1.90;;;10.10;99.90;;;;;;5071521;28;20044;-72
2023/04/01 11:05:49;;;;;;;2.97;2.13;;;10.00;99.90;;;;;;5070930;28;20080;-72
2023/04/01 11:08:52;;;;;;;5.40;2.72;;;10.00;99.90;;;;;;5071318;28;20052;-72
2023/04/01 11:12:05;;;;;;;2.60;2.28;;;9.90;99.90;;;;;;5071594;28;20318;-73
2023/04/01 11:14:52;;;;;;;2.75;2.22;;;9.90;99.90;;;;;;5075061;28;20040;-72
2023/04/01 11:17:48;;;;;;;2.40;2.13;;;9.90;99.90;;;;;;5075142;28;20066;-72
2023/04/01 11:20:13;;;;;;;2.80;2.10;;;9.80;99.90;;;;;;5073897;28;20496;-72
2023/04/01 11:23:13;;;;;;;2.55;2.35;;;9.80;99.90;;;;;;5073803;28;20039;-73
2023/04/01 11:26:01;;;;;;;4.47;2.38;;;9.90;99.90;;;;;;5073292;28;20158;-73
2023/04/01 11:29:00;;;;;;;2.83;2.38;;;10.00;99.90;;;;;;5075252;28;20040;-73
2023/04/01 11:31:46;;;;;;;3.38;2.13;;;10.10;99.90;;;;;;5074918;28;20044;-73
2023/04/01 11:34:22;;;;;;;4.60;2.63;;;10.20;99.90;;;;;;5074608;28;20113;-73
2023/04/01 11:37:04;;;;;;;3.28;2.38;;;10.20;99.90;;;;;;5074857;28;20063;-72
2023/04/01 11:39:49;;;;;;;3.38;1.92;;;10.30;99.90;;;;;;5074792;28;20086;-73
2023/04/01 11:42:37;;;;;;;3.22;2.25;;;10.40;99.90;;;;;;5074662;28;20036;-73
2023/04/01 11:45:35;;;;;;;3.08;2.30;;;10.40;99.90;;;;;;5035876;28;20053;-73
2023/04/01 11:48:25;;;;;;;4.55;2.30;;;10.40;99.90;;;;;;5073570;28;20392;-73
2023/04/01 11:51:29;;;;;;;3.15;2.22;;;10.30;99.90;;;;;;5074439;28;20044;-73
2023/04/01 11:54:36;;;;;;;2.78;2.22;;;10.20;99.90;;;;;;5061168;28;20063;-73
2023/04/01 11:57:18;;;;;;;3.15;2.47;;;10.20;99.90;;;;;;5032530;28;20056;-73
2023/04/01 12:00:02;;;;;;;2.60;2.40;;;10.30;99.90;;;;;;5073206;28;20450;-73
2023/04/01 12:02:48;;;;;;;3.13;2.40;;;10.30;99.90;;;;;;5073239;28;20049;-73
2023/04/01 12:05:44;;;;;;;2.47;2.15;;;10.40;99.90;;;;;;5073752;28;20041;-73
2023/04/01 12:08:15;;;;;;;2.65;1.75;;;10.30;99.90;;;;;;5074368;28;20036;-73
2023/04/01 12:11:18;;;;;;;2.20;1.88;;;10.30;99.90;;;;;;5073101;28;20067;-73
2023/04/01 12:14:02;;;;;;;2.40;1.90;;;10.30;99.90;;;;;;5073835;28;20052;-73
2023/04/01 12:16:56;;;;;;;4.40;2.35;;;10.20;99.90;;;;;;5074046;28;20033;-73
2023/04/01 12:19:35;;;;;;;3.33;2.55;;;10.20;99.90;;;;;;5073932;28;20401;-73
2023/04/01 12:22:22;;;;;;;2.67;2.40;;;10.10;99.90;;;;;;5073823;28;20044;-73
2023/04/01 12:24:56;;;;;;;4.28;2.83;;;10.20;99.90;;;;;;5071774;28;20484;-73
2023/04/01 12:27:30;;;;;;;2.85;2.55;;;10.20;99.90;;;;;;5072584;28;20415;-73
2023/04/01 12:30:09;;;;;;;3.33;2.70;;;10.10;99.90;;;;;;5072477;28;20048;-73
2023/04/01 12:32:45;;;;;;;7.55;2.78;;;10.00;99.90;;;;;;5073608;28;20041;-73
2023/04/01 12:35:19;;;;;;;2.88;2.55;;;10.00;99.90;;;;;;5072266;28;20408;-73
2023/04/01 12:38:13;;;;;;;2.78;2.47;;;9.90;99.90;;;;;;5073708;28;20089;-73
2023/04/01 12:41:07;;;;;;;2.60;2.40;;;9.90;99.90;;;;;;5073394;28;20044;-73
2023/04/01 12:43:59;;;;;;;4.90;2.38;;;9.90;99.90;;;;;;5073596;28;20033;-73
2023/04/01 12:46:47;;;;;;;4.60;2.90;;;10.00;99.90;;;;;;5072134;28;20044;-73
2023/04/01 12:49:50;;;;;;;2.97;2.45;;;10.00;99.90;;;;;;5073631;28;20036;-73
2023/04/01 12:52:37;;;;;;;2.42;2.10;;;10.00;99.90;;;;;;5073151;28;20557;-72
2023/04/01 12:55:19;;;;;;;2.22;2.03;;;10.00;99.90;;;;;;5072890;28;20072;-72
2023/04/01 12:58:20;;;;;;;2.83;2.42;;;9.90;99.90;;;;;;5073419;28;20036;-73
2023/04/01 13:01:04;;;;;;;2.65;2.30;;;9.90;99.90;;;;;;5073140;28;20132;-72
2023/04/01 13:04:15;;;;;;;2.90;2.60;;;9.90;99.90;;;;;;5071613;28;20415;-73
2023/04/01 13:07:06;;;;;;;3.22;2.40;;;9.80;99.90;;;;;;5073026;28;20047;-72
2023/04/01 13:10:03;;;;;;;2.33;2.13;;;9.90;99.90;;;;;;5073341;28;20400;-72
2023/04/01 13:12:59;;;;;;;3.05;2.75;;;9.80;99.90;;;;;;5039032;28;20438;-72
2023/04/01 13:15:49;;;;;;;9.02;2.67;;;9.90;99.90;;;;;;5064078;28;20411;-73
2023/04/01 13:18:32;;;;;;;2.75;1.95;;;9.80;99.90;;;;;;5071677;28;20053;-73
2023/04/01 13:21:02;;;;;;;3.17;2.88;;;9.80;99.90;;;;;;5071497;28;20121;-73
2023/04/01 13:23:44;;;;;;;3.63;2.00;;;9.80;99.90;;;;;;5071472;28;20492;-72
2023/04/01 13:26:30;;;;;;;3.33;2.10;;;9.80;99.90;;;;;;5070900;28;20496;-73
2023/04/01 13:29:21;;;;;;;4.40;2.40;;;9.70;99.90;;;;;;5072061;28;20048;-73